Time;durP1;ratioP1;P1;durP2;ratioP2;P2;SDS_P1;SDS_P2;PMS_P1;PMS_P2;Temp;Humidity;BMP_temperature;BMP_pressure;BME280_temperature;BME280_humidity;BME280_pressure;Samples;Min_cycle;Max_cycle;Signal;HPM_P1;HPM_P2
2022/08/29 00:02:16;;;;;;;35.88;20.33;;;18.60;99.90;;;;;;5031567;28;20053;-85
2022/08/29 00:04:42;;;;;;;35.15;20.63;;;18.50;99.90;;;;;;5014219;28;20503;-86
2022/08/29 00:07:07;;;;;;;34.53;19.02;;;18.60;99.90;;;;;;5031717;28;20037;-87
2022/08/29 00:09:33;;;;;;;32.13;19.13;;;18.60;99.90;;;;;;5014317;28;20386;-87
2022/08/29 00:11:59;;;;;;;34.67;20.45;;;18.50;99.90;;;;;;5031388;28;20255;-85
2022/08/29 00:14:25;;;;;;;43.63;19.27;;;18.60;99.90;;;;;;5031603;28;20036;-85
2022/08/29 00:16:51;;;;;;;40.00;20.13;;;18.60;99.90;;;;;;5035642;28;20033;-84
2022/08/29 00:19:16;;;;;;;40.17;18.50;;;18.50;99.90;;;;;;5040526;28;20022;-85
2022/08/29 00:21:42;;;;;;;27.77;16.70;;;18.50;99.90;;;;;;5022536;28;20085;-87
2022/08/29 00:24:08;;;;;;;34.60;16.65;;;18.50;99.90;;;;;;5023031;28;20034;-84
2022/08/29 00:26:34;;;;;;;26.80;14.88;;;18.50;99.90;;;;;;5023442;28;20057;-86
2022/08/29 00:29:09;;;;;;;27.50;15.73;;;18.50;99.90;;;;;;5041669;28;20021;-84
2022/08/29 00:31:34;;;;;;;25.48;14.88;;;18.50;99.90;;;;;;5023458;28;20029;-85
2022/08/29 00:34:00;;;;;;;24.88;14.05;;;18.50;99.90;;;;;;5022892;28;20069;-86
2022/08/29 00:36:26;;;;;;;22.55;13.02;;;18.50;99.90;;;;;;5023126;28;20040;-87
2022/08/29 00:38:52;;;;;;;26.10;12.80;;;18.40;99.90;;;;;;5022506;28;20040;-88
2022/08/29 00:41:18;;;;;;;26.63;13.98;;;18.40;99.90;;;;;;5032810;28;20022;-86
2022/08/29 00:43:44;;;;;;;21.83;12.75;;;18.50;99.90;;;;;;5013430;28;20739;-88
2022/08/29 00:46:30;;;;;;;24.65;13.50;;;18.40;99.90;;;;;;5030840;28;20030;-88
2022/08/29 00:49:01;;;;;;;24.25;13.45;;;18.40;99.90;;;;;;5013129;28;20021;-87
2022/08/29 00:51:27;;;;;;;21.83;12.38;;;18.40;99.90;;;;;;5013607;28;20054;-89
2022/08/29 00:53:59;;;;;;;20.58;11.35;;;18.40;99.90;;;;;;5013189;28;20115;-87
2022/08/29 00:56:26;;;;;;;17.42;11.65;;;18.30;99.90;;;;;;5015338;23;20124;-53
2022/08/29 00:58:57;;;;;;;21.13;11.32;;;18.30;99.90;;;;;;4989229;28;20058;-53
2022/08/29 01:01:24;;;;;;;20.67;11.05;;;18.20;99.90;;;;;;4990252;28;20192;-53
2022/08/29 01:03:51;;;;;;;21.27;12.05;;;18.20;99.90;;;;;;4990120;28;20077;-52
2022/08/29 01:06:18;;;;;;;23.77;11.60;;;18.20;99.90;;;;;;4989906;28;20044;-53
2022/08/29 01:08:44;;;;;;;;;;;18.10;99.90;;;;;;4990262;28;20038;-53
2022/08/29 01:14:00;;;;;;;21.17;11.00;;;18.10;99.90;;;;;;4990119;28;20092;-53
2022/08/29 01:16:27;;;;;;;17.30;10.32;;;18.20;99.90;;;;;;4990106;28;20027;-52
2022/08/29 01:19:00;;;;;;;17.05;9.88;;;18.20;99.90;;;;;;4989737;28;20068;-52
2022/08/29 01:21:54;;;;;;;16.02;8.63;;;18.20;99.90;;;;;;4992475;28;20050;-52
2022/08/29 01:24:51;;;;;;;21.33;8.95;;;18.20;99.90;;;;;;4975744;28;20500;-52
2022/08/29 01:27:22;;;;;;;14.43;8.20;;;18.20;99.90;;;;;;4993155;28;20043;-53
2022/08/29 01:29:48;;;;;;;20.67;9.10;;;18.20;99.90;;;;;;4993147;28;20042;-55
2022/08/29 01:32:14;;;;;;;26.20;8.63;;;18.20;99.90;;;;;;4975548;28;20031;-53
2022/08/29 01:34:40;;;;;;;19.42;8.30;;;18.10;99.90;;;;;;4993274;28;20026;-52
2022/08/29 01:37:09;;;;;;;14.55;7.65;;;18.10;99.90;;;;;;4993014;28;20042;-53
2022/08/29 01:39:38;;;;;;;15.45;8.40;;;18.10;99.90;;;;;;4993055;28;20027;-55
2022/08/29 01:42:09;;;;;;;16.25;7.75;;;18.10;99.90;;;;;;4993160;28;20034;-52
2022/08/29 01:44:36;;;;;;;15.32;7.63;;;18.10;99.90;;;;;;4992903;28;20112;-55
2022/08/29 01:47:02;;;;;;;13.32;8.02;;;18.00;99.90;;;;;;4992706;28;20486;-52
2022/08/29 01:49:30;;;;;;;13.13;7.27;;;18.10;99.90;;;;;;4992880;28;20560;-53
2022/08/29 01:51:56;;;;;;;16.90;7.68;;;18.00;99.90;;;;;;4992773;28;20034;-53
2022/08/29 01:54:22;;;;;;;17.67;7.18;;;18.00;99.90;;;;;;4992929;28;20025;-53
2022/08/29 01:56:50;;;;;;;16.92;7.00;;;18.00;99.90;;;;;;4992713;28;20561;-53
2022/08/29 01:59:19;;;;;;;15.57;8.02;;;18.00;99.90;;;;;;4992860;28;20022;-52
2022/08/29 02:02:35;;;;;;;16.40;7.22;;;18.00;99.90;;;;;;4992742;28;20503;-53
2022/08/29 02:05:01;;;;;;;15.35;7.32;;;18.00;99.90;;;;;;4979766;28;20049;-53
2022/08/29 02:07:28;;;;;;;15.15;8.02;;;18.00;99.90;;;;;;4992475;28;20038;-53
2022/08/29 02:09:54;;;;;;;18.15;8.10;;;18.00;99.90;;;;;;4992506;28;20053;-53
2022/08/29 02:12:19;;;;;;;14.77;7.18;;;18.00;99.90;;;;;;4992551;28;20474;-53
2022/08/29 02:14:45;;;;;;;19.67;8.10;;;18.10;99.90;;;;;;4992212;28;20026;-53
2022/08/29 02:17:11;;;;;;;14.00;7.45;;;18.10;99.90;;;;;;4992582;28;20041;-52
2022/08/29 02:19:38;;;;;;;15.27;8.18;;;18.00;99.90;;;;;;4992369;28;20034;-53
2022/08/29 02:22:05;;;;;;;15.27;7.20;;;18.00;99.90;;;;;;4992271;28;20437;-53
2022/08/29 02:24:31;;;;;;;14.90;6.65;;;18.00;99.90;;;;;;4992242;28;20405;-53
2022/08/29 02:26:57;;;;;;;14.27;7.97;;;18.00;99.90;;;;;;4992300;28;20038;-52
2022/08/29 02:29:25;;;;;;;13.25;8.38;;;18.00;99.90;;;;;;4992285;28;20022;-54
2022/08/29 02:31:51;;;;;;;21.50;9.10;;;18.00;99.90;;;;;;4991109;28;20030;-52
2022/08/29 02:34:17;;;;;;;21.60;9.82;;;18.00;99.90;;;;;;4992147;28;20038;-52
2022/08/29 02:36:42;;;;;;;19.50;9.85;;;17.90;99.90;;;;;;4991919;28;20065;-52
2022/08/29 02:39:08;;;;;;;21.60;11.60;;;17.90;99.90;;;;;;4991897;28;20048;-53
2022/08/29 02:41:34;;;;;;;25.70;10.60;;;17.90;99.90;;;;;;4991766;28;20026;-53
2022/08/29 02:44:01;;;;;;;23.98;10.55;;;17.90;99.90;;;;;;4991720;28;20553;-53
2022/08/29 02:46:27;;;;;;;26.23;12.10;;;17.90;99.90;;;;;;4991706;28;20034;-52
2022/08/29 02:48:53;;;;;;;21.58;9.75;;;17.90;99.90;;;;;;4991865;28;20037;-53
2022/08/29 02:51:29;;;;;;;20.45;10.80;;;17.90;99.90;;;;;;4991942;28;20054;-52
2022/08/29 02:53:55;;;;;;;14.45;8.85;;;17.90;99.90;;;;;;4991809;28;20026;-53
2022/08/29 02:56:21;;;;;;;16.35;8.95;;;17.90;99.90;;;;;;4991454;28;20061;-52
2022/08/29 02:58:50;;;;;;;20.10;10.07;;;17.90;99.90;;;;;;4991128;28;20033;-53
2022/08/29 03:01:18;;;;;;;21.55;9.27;;;18.00;99.90;;;;;;4991648;28;20047;-52
2022/08/29 03:03:44;;;;;;;18.48;8.80;;;17.90;99.90;;;;;;5001522;28;20030;-53
2022/08/29 03:06:09;;;;;;;21.13;11.43;;;17.90;99.90;;;;;;5015285;28;20121;-53
2022/08/29 03:08:36;;;;;;;22.60;10.68;;;17.90;99.90;;;;;;5020408;28;20112;-52
2022/08/29 03:11:02;;;;;;;28.00;12.50;;;17.90;99.90;;;;;;5011481;28;20445;-52
2022/08/29 03:13:28;;;;;;;26.65;11.82;;;17.80;99.90;;;;;;5019965;28;20507;-53
2022/08/29 03:15:53;;;;;;;32.10;13.50;;;17.90;99.90;;;;;;5020157;28;20576;-53
2022/08/29 03:18:19;;;;;;;30.50;12.73;;;17.90;99.90;;;;;;5018354;28;20025;-52
2022/08/29 03:20:45;;;;;;;29.27;13.43;;;17.80;99.90;;;;;;5020637;28;20026;-53
2022/08/29 03:23:11;;;;;;;32.97;13.20;;;17.90;99.90;;;;;;5024330;28;20034;-52
2022/08/29 03:25:37;;;;;;;25.35;12.88;;;17.80;99.90;;;;;;4991029;28;20088;-52
2022/08/29 03:28:03;;;;;;;28.40;12.45;;;17.90;99.90;;;;;;4991083;28;20041;-52
2022/08/29 03:30:29;;;;;;;28.25;12.57;;;17.80;99.90;;;;;;4990541;28;20331;-52
2022/08/29 03:32:55;;;;;;;32.58;12.65;;;17.80;99.90;;;;;;4990143;28;20033;-54
2022/08/29 03:35:21;;;;;;;23.77;12.60;;;17.80;99.90;;;;;;5000630;28;20040;-52
2022/08/29 03:37:47;;;;;;;22.48;11.13;;;17.80;99.90;;;;;;5007636;28;20072;-52
2022/08/29 03:40:13;;;;;;;23.60;11.38;;;17.80;99.90;;;;;;5018722;28;20159;-53
2022/08/29 03:42:41;;;;;;;25.23;11.77;;;17.80;99.90;;;;;;5018056;28;20105;-53
2022/08/29 03:45:09;;;;;;;19.98;10.43;;;17.80;99.90;;;;;;5010717;28;20040;-52
2022/08/29 03:47:35;;;;;;;19.27;10.75;;;17.80;99.90;;;;;;5009665;28;20041;-52
2022/08/29 03:50:00;;;;;;;22.52;12.70;;;17.80;99.90;;;;;;5009635;28;20017;-52
2022/08/29 03:52:26;;;;;;;26.30;12.13;;;17.80;99.90;;;;;;5001787;28;20370;-54
2022/08/29 03:54:52;;;;;;;25.90;12.13;;;17.80;99.90;;;;;;4988187;28;20018;-52
2022/08/29 03:57:18;;;;;;;27.23;13.50;;;17.80;99.90;;;;;;4987151;28;20454;-52
2022/08/29 03:59:44;;;;;;;23.17;15.05;;;17.80;99.90;;;;;;4988329;28;20129;-52
2022/08/29 04:02:09;;;;;;;26.73;13.45;;;17.80;99.90;;;;;;4988363;28;20038;-53
2022/08/29 04:07:19;;;;;;;18.30;13.93;;;17.80;99.90;;;;;;4988181;28;20508;-52
2022/08/29 04:09:45;;;;;;;22.48;12.80;;;17.70;99.90;;;;;;4987886;28;20046;-53
2022/08/29 04:12:12;;;;;;;24.17;14.55;;;17.70;99.90;;;;;;4986828;28;20542;-52
2022/08/29 04:14:39;;;;;;;20.92;13.82;;;17.70;99.90;;;;;;4987119;28;20485;-53
2022/08/29 04:17:05;;;;;;;24.38;13.27;;;17.70;99.90;;;;;;4986928;28;20033;-53
2022/08/29 04:19:32;;;;;;;21.67;13.77;;;17.70;99.90;;;;;;4988352;28;20029;-53
2022/08/29 04:21:57;;;;;;;19.83;13.45;;;17.70;99.90;;;;;;4988252;28;20262;-53
2022/08/29 04:24:24;;;;;;;25.13;14.10;;;17.70;99.90;;;;;;4988235;28;20038;-53
2022/08/29 04:26:50;;;;;;;18.77;13.82;;;17.70;99.90;;;;;;4989878;28;20042;-53
2022/08/29 04:29:15;;;;;;;23.55;13.15;;;17.70;99.90;;;;;;4990152;28;20034;-53
2022/08/29 04:31:42;;;;;;;21.75;14.25;;;17.60;99.90;;;;;;4990233;28;20031;-52
2022/08/29 04:34:11;;;;;;;20.95;13.90;;;17.60;99.90;;;;;;4990549;28;20719;-53
2022/08/29 04:36:40;;;;;;;20.55;13.65;;;17.60;99.90;;;;;;4990044;28;20034;-53
2022/08/29 04:39:07;;;;;;;24.08;13.43;;;17.60;99.90;;;;;;4990239;28;20105;-52
2022/08/29 04:41:33;;;;;;;21.65;14.43;;;17.50;99.90;;;;;;4990211;28;20026;-53
2022/08/29 04:44:00;;;;;;;34.65;15.60;;;17.50;99.90;;;;;;4990106;28;20034;-53
2022/08/29 04:46:26;;;;;;;19.77;13.57;;;17.50;99.90;;;;;;4989763;28;20500;-53
2022/08/29 04:48:52;;;;;;;20.77;14.73;;;17.50;99.90;;;;;;4989936;28;20113;-52
2022/08/29 04:51:18;;;;;;;29.98;15.63;;;17.50;99.90;;;;;;4989849;28;20395;-52
2022/08/29 04:53:44;;;;;;;23.05;15.27;;;17.50;99.90;;;;;;4989954;28;20043;-53
2022/08/29 04:56:11;;;;;;;19.27;14.25;;;17.50;99.90;;;;;;4992309;28;20133;-53
2022/08/29 04:58:40;;;;;;;23.20;13.32;;;17.40;99.90;;;;;;4993990;28;20076;-53
2022/08/29 05:01:06;;;;;;;23.83;15.07;;;17.50;99.90;;;;;;4993790;28;20049;-52
2022/08/29 05:03:33;;;;;;;24.83;13.88;;;17.40;99.90;;;;;;4993825;28;20030;-53
2022/08/29 05:06:05;;;;;;;23.70;14.48;;;17.40;99.90;;;;;;4993541;28;20089;-53
2022/08/29 05:08:32;;;;;;;19.90;13.90;;;17.40;99.90;;;;;;4993655;28;20019;-53
2022/08/29 05:10:58;;;;;;;18.38;13.25;;;17.40;99.90;;;;;;4993445;28;20845;-53
2022/08/29 05:13:24;;;;;;;20.63;13.43;;;17.40;99.90;;;;;;4993543;28;20070;-53
2022/08/29 05:15:49;;;;;;;23.85;13.13;;;17.50;99.90;;;;;;4993625;28;20026;-53
2022/08/29 05:18:17;;;;;;;22.15;14.63;;;17.40;99.90;;;;;;4993030;28;20470;-53
2022/08/29 05:20:44;;;;;;;;;;;17.40;99.90;;;;;;4993671;28;20034;-53
2022/08/29 05:23:10;;;;;;;28.55;15.93;;;17.50;99.90;;;;;;4993242;28;20249;-53
2022/08/29 05:25:36;;;;;;;24.45;14.48;;;17.40;99.90;;;;;;4993591;28;20041;-53
2022/08/29 05:28:03;;;;;;;32.55;15.88;;;17.50;99.90;;;;;;4993233;28;20043;-54
2022/08/29 05:30:30;;;;;;;22.45;13.93;;;17.50;99.90;;;;;;4993421;28;20030;-54
2022/08/29 05:32:55;;;;;;;19.60;13.85;;;17.50;99.90;;;;;;4993117;28;20093;-54
2022/08/29 05:35:21;;;;;;;21.13;14.30;;;17.50;99.90;;;;;;4993697;28;20698;-54
2022/08/29 05:37:47;;;;;;;20.08;13.88;;;17.50;99.90;;;;;;4993354;28;20026;-53
2022/08/29 05:40:13;;;;;;;22.35;15.15;;;17.50;99.90;;;;;;4975907;28;20026;-54
2022/08/29 05:42:39;;;;;;;21.38;13.85;;;17.50;99.90;;;;;;4993078;28;20085;-53
2022/08/29 05:45:05;;;;;;;24.50;14.35;;;17.50;99.90;;;;;;4992962;28;20034;-53
2022/08/29 05:47:31;;;;;;;23.80;14.77;;;17.60;99.90;;;;;;4992744;28;20105;-53
2022/08/29 05:49:58;;;;;;;27.08;15.05;;;17.60;99.90;;;;;;4993542;28;20038;-53
2022/08/29 05:52:25;;;;;;;21.67;14.32;;;17.60;99.90;;;;;;5021812;28;20105;-53
2022/08/29 05:54:51;;;;;;;22.27;12.85;;;17.50;99.90;;;;;;5030502;28;20029;-52
2022/08/29 05:57:20;;;;;;;26.60;14.63;;;17.50;99.90;;;;;;5019351;28;20057;-53
2022/08/29 05:59:51;;;;;;;25.60;14.75;;;17.50;99.90;;;;;;5018059;28;20014;-52
2022/08/29 06:02:17;;;;;;;23.98;13.85;;;17.50;99.90;;;;;;5018230;28;20018;-53
2022/08/29 06:04:44;;;;;;;32.67;15.00;;;17.50;99.90;;;;;;5018106;28;20030;-53
2022/08/29 06:07:10;;;;;;;31.30;14.18;;;17.40;99.90;;;;;;5016683;28;20041;-52
2022/08/29 06:09:38;;;;;;;29.60;14.70;;;17.40;99.90;;;;;;5018112;28;20042;-53
2022/08/29 06:12:05;;;;;;;27.45;17.27;;;17.50;99.90;;;;;;5017754;28;20022;-54
2022/08/29 06:14:31;;;;;;;35.47;17.20;;;17.50;99.90;;;;;;5021119;28;20030;-53
2022/08/29 06:16:57;;;;;;;42.63;18.58;;;17.50;99.90;;;;;;5020885;28;20029;-53
2022/08/29 06:19:23;;;;;;;37.55;18.13;;;17.50;99.90;;;;;;5021378;28;20525;-53
2022/08/29 06:21:49;;;;;;;38.47;19.10;;;17.60;99.90;;;;;;5016947;28;20049;-53
2022/08/29 06:24:15;;;;;;;39.90;17.73;;;17.60;99.90;;;;;;5020718;28;20060;-52
2022/08/29 06:26:43;;;;;;;35.60;18.33;;;17.60;99.90;;;;;;5021131;28;20117;-53
2022/08/29 06:29:14;;;;;;;30.92;17.10;;;17.70;99.90;;;;;;5020805;28;20264;-53
2022/08/29 06:31:40;;;;;;;25.13;15.57;;;17.70;99.90;;;;;;5022794;28;20061;-53
2022/08/29 06:34:08;;;;;;;32.05;16.77;;;17.70;99.90;;;;;;5031498;28;20036;-52
2022/08/29 06:36:34;;;;;;;29.73;17.50;;;17.70;99.90;;;;;;5031421;28;20033;-53
2022/08/29 06:39:02;;;;;;;28.75;17.52;;;17.70;99.90;;;;;;5031671;28;20053;-53
2022/08/29 06:41:29;;;;;;;27.23;17.10;;;17.70;99.90;;;;;;5031236;28;20027;-53
2022/08/29 06:43:55;;;;;;;23.60;15.80;;;17.70;99.90;;;;;;5031288;28;20033;-53
2022/08/29 06:46:35;;;;;;;28.80;16.23;;;17.80;99.90;;;;;;5031076;28;20124;-52
2022/08/29 06:49:03;;;;;;;28.65;17.38;;;17.80;99.90;;;;;;5031121;28;20030;-53
2022/08/29 06:51:31;;;;;;;33.67;17.35;;;17.80;99.90;;;;;;5031034;28;20041;-53
2022/08/29 06:53:59;;;;;;;26.48;16.08;;;17.80;99.90;;;;;;5031280;28;20029;-53
2022/08/29 06:56:24;;;;;;;24.70;14.93;;;17.90;99.90;;;;;;5027923;28;20069;-52
2022/08/29 06:58:50;;;;;;;27.30;15.80;;;17.90;99.90;;;;;;5021175;28;20025;-53
2022/08/29 07:01:17;;;;;;;23.75;15.75;;;18.00;99.90;;;;;;5020920;28;20477;-54
2022/08/29 07:03:45;;;;;;;25.48;14.63;;;18.00;99.90;;;;;;5016122;28;20053;-53
2022/08/29 07:06:11;;;;;;;24.17;15.02;;;18.10;99.90;;;;;;5010783;28;20147;-53
2022/08/29 07:08:37;;;;;;;25.13;13.93;;;18.10;99.90;;;;;;5010863;28;20033;-53
2022/08/29 07:11:03;;;;;;;21.38;14.48;;;18.10;99.90;;;;;;5010789;28;20481;-63
2022/08/29 07:13:30;;;;;;;23.65;14.00;;;18.20;99.90;;;;;;5010756;28;20396;-53
2022/08/29 07:15:56;;;;;;;18.60;13.40;;;18.30;99.90;;;;;;5010714;28;20385;-53
2022/08/29 07:18:22;;;;;;;23.97;14.40;;;18.40;99.90;;;;;;5010356;28;20029;-53
2022/08/29 07:20:48;;;;;;;17.23;12.82;;;18.30;99.90;;;;;;5010922;28;20484;-58
2022/08/29 07:23:14;;;;;;;23.65;14.82;;;18.30;99.90;;;;;;5010864;28;20037;-52
2022/08/29 07:25:39;;;;;;;22.90;13.98;;;18.40;99.90;;;;;;5010618;28;20390;-52
2022/08/29 07:28:05;;;;;;;20.42;14.32;;;18.30;99.90;;;;;;5010604;28;20124;-52
2022/08/29 07:30:31;;;;;;;22.35;14.85;;;18.40;99.90;;;;;;5010533;28;20022;-53
2022/08/29 07:32:57;;;;;;;25.10;15.30;;;18.30;99.90;;;;;;5010533;28;20030;-53
2022/08/29 07:35:24;;;;;;;27.17;15.82;;;18.30;99.90;;;;;;5010393;28;20084;-54
2022/08/29 07:37:50;;;;;;;24.67;14.77;;;18.40;99.90;;;;;;5010307;28;20045;-54
2022/08/29 07:40:16;;;;;;;24.17;14.30;;;18.50;99.90;;;;;;5010364;28;20284;-53
2022/08/29 07:42:42;;;;;;;26.10;15.55;;;18.70;99.90;;;;;;5010220;28;20030;-53
2022/08/29 07:45:10;;;;;;;24.53;15.07;;;18.40;99.90;;;;;;5014933;28;20067;-53
2022/08/29 07:47:36;;;;;;;24.05;14.20;;;18.00;99.90;;;;;;5030038;28;20033;-52
2022/08/29 07:50:05;;;;;;;24.50;14.93;;;18.10;99.90;;;;;;5029885;28;20088;-53
2022/08/29 07:52:31;;;;;;;27.25;15.10;;;18.40;99.90;;;;;;5029877;28;20083;-53
2022/08/29 07:54:57;;;;;;;19.92;14.05;;;18.60;99.90;;;;;;5029847;28;20108;-54
2022/08/29 07:57:22;;;;;;;20.65;13.18;;;18.70;99.90;;;;;;5029599;28;20053;-53
2022/08/29 07:59:49;;;;;;;25.05;13.10;;;18.70;99.90;;;;;;5029776;28;20022;-53
2022/08/29 08:02:15;;;;;;;25.13;12.73;;;18.60;99.90;;;;;;5030108;28;20080;-53
2022/08/29 08:04:41;;;;;;;20.55;11.32;;;18.80;99.90;;;;;;5029676;28;20108;-53
2022/08/29 08:07:07;;;;;;;22.52;12.18;;;19.00;99.90;;;;;;5029473;28;20155;-53
2022/08/29 08:09:33;;;;;;;17.42;11.35;;;19.00;99.90;;;;;;5029639;28;20108;-53
2022/08/29 08:12:00;;;;;;;21.92;12.20;;;19.20;99.90;;;;;;5029826;28;20247;-53
2022/08/29 08:14:25;;;;;;;30.50;12.50;;;19.40;99.90;;;;;;5029615;28;20032;-53
2022/08/29 08:16:51;;;;;;;19.08;10.65;;;19.20;99.90;;;;;;5019257;28;20022;-53
2022/08/29 08:19:17;;;;;;;16.90;9.98;;;19.40;99.90;;;;;;5008216;28;20034;-53
2022/08/29 08:21:43;;;;;;;16.98;10.02;;;19.50;99.90;;;;;;4989854;28;20545;-53
2022/08/29 08:24:09;;;;;;;16.20;10.55;;;19.60;99.90;;;;;;4999400;28;20030;-53
2022/08/29 08:26:35;;;;;;;19.23;10.27;;;19.60;99.90;;;;;;5003570;28;20383;-53
2022/08/29 08:29:02;;;;;;;18.95;10.98;;;19.70;99.90;;;;;;4998597;28;20029;-53
2022/08/29 08:31:28;;;;;;;19.35;10.75;;;19.90;99.90;;;;;;5011044;28;20028;-53
2022/08/29 08:33:54;;;;;;;21.00;11.57;;;20.00;99.90;;;;;;5006233;28;20424;-53
2022/08/29 08:36:24;;;;;;;15.27;10.13;;;20.10;99.90;;;;;;4984486;28;20018;-52
2022/08/29 08:38:51;;;;;;;16.83;11.05;;;20.30;99.90;;;;;;5010457;28;20307;-53
2022/08/29 08:41:43;;;;;;;20.88;10.13;;;20.30;99.90;;;;;;5013528;28;20034;-52
2022/08/29 08:44:38;;;;;;;15.13;9.27;;;20.40;99.90;;;;;;5012380;28;20034;-52
2022/08/29 08:47:08;;;;;;;15.55;9.13;;;20.20;99.90;;;;;;4983602;28;20115;-53
2022/08/29 08:49:46;;;;;;;13.85;8.48;;;20.10;99.90;;;;;;5012543;28;20366;-53
2022/08/29 08:52:21;;;;;;;16.02;9.10;;;20.20;99.90;;;;;;5013640;28;20037;-53
2022/08/29 08:54:56;;;;;;;18.60;9.18;;;20.20;99.90;;;;;;5013512;28;20037;-53
2022/08/29 08:57:26;;;;;;;15.50;8.57;;;20.40;99.90;;;;;;5013361;28;20045;-53
2022/08/29 08:59:57;;;;;;;17.52;9.30;;;20.50;99.90;;;;;;5013388;28;20032;-53
2022/08/29 09:02:28;;;;;;;13.95;8.57;;;20.70;99.90;;;;;;5012490;28;20041;-53
2022/08/29 09:05:12;;;;;;;15.45;9.30;;;20.80;99.90;;;;;;5012874;28;20395;-54
2022/08/29 09:07:45;;;;;;;16.00;10.10;;;20.80;99.90;;;;;;5012248;28;20065;-53
2022/08/29 09:10:29;;;;;;;16.08;9.48;;;20.60;99.90;;;;;;5012950;28;20026;-54
2022/08/29 09:13:34;;;;;;;15.05;9.20;;;20.90;99.90;;;;;;5012279;28;20112;-53
2022/08/29 09:16:23;;;;;;;13.95;8.88;;;21.20;99.90;;;;;;5013413;28;20098;-53
2022/08/29 09:18:49;;;;;;;14.63;7.75;;;20.80;99.90;;;;;;5012799;28;20037;-53
2022/08/29 09:21:19;;;;;;;18.27;10.30;;;21.20;99.90;;;;;;5013027;28;20466;-53
2022/08/29 09:23:48;;;;;;;19.05;8.85;;;21.60;99.90;;;;;;5012931;28;20034;-53
2022/08/29 09:26:19;;;;;;;14.27;8.02;;;22.20;99.90;;;;;;5013152;28;20536;-54
2022/08/29 09:28:46;;;;;;;13.55;8.02;;;22.20;99.90;;;;;;5013027;28;20033;-54
2022/08/29 09:31:28;;;;;;;11.75;6.32;;;22.10;99.90;;;;;;5013190;28;20088;-53
2022/08/29 09:34:07;;;;;;;16.75;8.18;;;22.40;99.90;;;;;;5012948;28;20125;-54
2022/08/29 09:36:35;;;;;;;12.65;7.32;;;22.40;99.90;;;;;;5012789;28;20029;-53
2022/08/29 09:39:30;;;;;;;13.68;7.25;;;22.30;99.90;;;;;;5012609;28;20029;-53
2022/08/29 09:41:58;;;;;;;16.33;6.30;;;22.70;99.90;;;;;;5006932;28;20061;-53
2022/08/29 09:44:30;;;;;;;15.00;7.53;;;23.20;99.90;;;;;;5012569;28;20485;-54
2022/08/29 09:47:19;;;;;;;17.48;7.35;;;23.00;99.90;;;;;;5012436;28;20033;-53
2022/08/29 09:50:06;;;;;;;15.23;7.88;;;23.10;99.90;;;;;;5012513;28;20030;-53
2022/08/29 09:52:32;;;;;;;17.95;8.52;;;23.10;99.90;;;;;;5012496;28;20137;-53
2022/08/29 09:55:38;;;;;;;14.38;7.88;;;23.00;99.90;;;;;;5012392;28;20022;-53
2022/08/29 09:58:06;;;;;;;15.93;6.68;;;23.40;99.90;;;;;;5004278;28;20042;-53
2022/08/29 10:00:54;;;;;;;13.57;6.45;;;23.70;99.90;;;;;;5012480;28;20033;-54
2022/08/29 10:03:24;;;;;;;14.27;6.18;;;24.00;99.90;;;;;;5012135;28;20026;-53
2022/08/29 10:06:06;;;;;;;15.55;7.43;;;24.50;99.90;;;;;;5012750;28;20105;-54
2022/08/29 10:08:37;;;;;;;13.65;6.85;;;24.40;99.90;;;;;;5012350;28;20038;-53
2022/08/29 10:11:27;;;;;;;18.85;7.45;;;24.40;99.90;;;;;;5012226;28;20424;-54
2022/08/29 10:14:00;;;;;;;12.38;5.95;;;24.10;99.90;;;;;;5012106;28;20489;-53
2022/08/29 10:18:19;;;;;;;15.43;6.28;;;23.90;99.90;;;;;;5012146;28;20038;-53
2022/08/29 10:19:46;;;;;;;12.75;6.38;;;23.50;99.90;;;;;;5011873;28;20030;-53
2022/08/29 10:22:30;;;;;;;9.82;5.07;;;23.50;99.90;;;;;;5012018;28;20026;-53
2022/08/29 10:25:01;;;;;;;9.18;5.43;;;23.60;99.90;;;;;;5012021;28;20053;-53
2022/08/29 10:27:48;;;;;;;12.65;5.63;;;24.50;99.90;;;;;;5011712;28;20512;-53
2022/08/29 10:30:22;;;;;;;15.43;6.15;;;24.70;99.90;;;;;;5012101;28;20184;-53
2022/08/29 10:33:06;;;;;;;10.70;5.72;;;24.30;99.90;;;;;;5011657;28;20095;-54
2022/08/29 10:35:48;;;;;;;10.82;5.03;;;24.50;99.90;;;;;;5011902;28;20056;-54
2022/08/29 10:38:28;;;;;;;11.65;5.38;;;25.10;99.90;;;;;;5011687;28;20037;-54
2022/08/29 10:41:07;;;;;;;12.68;5.30;;;25.50;99.70;;;;;;5011641;28;20080;-54
2022/08/29 10:43:35;;;;;;;9.15;4.55;;;25.70;99.90;;;;;;5011685;28;20113;-54
2022/08/29 10:46:13;;;;;;;9.50;4.13;;;25.30;97.90;;;;;;5011412;28;20030;-54
2022/08/29 10:48:48;;;;;;;6.95;4.05;;;25.00;98.80;;;;;;5011582;28;20149;-54
2022/08/29 10:51:38;;;;;;;8.50;4.93;;;24.40;97.70;;;;;;5011472;28;20044;-54
2022/08/29 10:54:17;;;;;;;9.02;4.47;;;24.80;99.90;;;;;;5010390;28;20505;-54
2022/08/29 10:56:47;;;;;;;12.18;5.05;;;24.70;99.00;;;;;;5011076;28;20049;-53
2022/08/29 10:59:28;;;;;;;10.57;4.82;;;24.30;97.60;;;;;;5011167;28;20021;-54
2022/08/29 11:02:03;;;;;;;9.52;4.85;;;24.20;99.90;;;;;;5011330;28;20030;-53
2022/08/29 11:04:37;;;;;;;11.90;4.70;;;24.10;99.90;;;;;;5011374;28;20539;-54
2022/08/29 11:07:15;;;;;;;10.52;4.22;;;24.30;99.90;;;;;;5011081;28;20042;-54
2022/08/29 11:10:02;;;;;;;10.40;3.63;;;24.80;98.20;;;;;;5011106;28;20486;-54
2022/08/29 11:13:05;;;;;;;11.15;4.05;;;24.70;95.70;;;;;;5010936;28;20033;-54
2022/08/29 11:15:43;;;;;;;9.27;3.15;;;25.60;94.50;;;;;;4960865;28;20065;-53
2022/08/29 11:18:43;;;;;;;9.32;3.53;;;25.60;93.40;;;;;;5011020;28;20072;-54
2022/08/29 11:21:59;;;;;;;6.25;2.92;;;25.30;93.10;;;;;;5011136;28;20040;-53
2022/08/29 11:24:29;;;;;;;10.23;3.83;;;25.50;96.60;;;;;;4985126;28;20030;-53
2022/08/29 11:27:14;;;;;;;8.65;3.40;;;25.40;93.20;;;;;;5010497;28;20388;-53
2022/08/29 11:30:05;;;;;;;6.95;3.15;;;25.40;91.90;;;;;;5010777;28;20500;-54
2022/08/29 11:32:42;;;;;;;10.77;4.13;;;25.60;91.70;;;;;;5011134;28;20037;-53
2022/08/29 11:35:29;;;;;;;9.07;3.80;;;25.70;93.80;;;;;;5010546;28;20026;-54
2022/08/29 11:38:14;;;;;;;9.52;3.83;;;25.50;93.10;;;;;;5010636;28;20448;-54
2022/08/29 11:40:46;;;;;;;11.55;4.00;;;25.40;93.10;;;;;;5010710;28;20165;-54
2022/08/29 11:43:23;;;;;;;8.82;4.22;;;25.70;92.50;;;;;;5010433;28;20500;-54
2022/08/29 11:45:58;;;;;;;9.40;3.63;;;26.10;92.00;;;;;;5010450;28;20033;-53
2022/08/29 11:48:35;;;;;;;9.98;3.85;;;26.30;91.50;;;;;;5010428;28;20055;-54
2022/08/29 11:51:25;;;;;;;9.00;4.10;;;26.70;94.50;;;;;;5010621;28;20396;-53
2022/08/29 11:53:51;;;;;;;11.25;3.60;;;26.90;94.40;;;;;;5010448;28;20104;-54
2022/08/29 11:56:24;;;;;;;10.93;4.82;;;27.00;92.60;;;;;;5009929;28;20501;-54
2022/08/29 11:58:56;;;;;;;9.63;3.40;;;27.20;93.30;;;;;;5011661;28;20054;-54
2022/08/29 12:01:24;;;;;;;10.07;4.00;;;27.50;93.70;;;;;;5020433;28;20049;-54
2022/08/29 12:03:55;;;;;;;9.05;3.72;;;27.30;92.00;;;;;;5018485;28;20056;-53
2022/08/29 12:06:43;;;;;;;7.13;3.80;;;27.10;91.70;;;;;;5015733;28;20431;-53
2022/08/29 12:09:12;;;;;;;8.40;3.67;;;27.10;91.40;;;;;;5010449;28;20053;-53
2022/08/29 12:12:03;;;;;;;6.72;3.30;;;27.20;87.80;;;;;;5017571;28;20018;-53
2022/08/29 12:14:28;;;;;;;14.25;4.13;;;27.30;91.50;;;;;;5017798;28;20151;-53
2022/08/29 12:16:54;;;;;;;8.20;3.58;;;27.50;87.50;;;;;;5017560;28;20557;-54
2022/08/29 12:19:51;;;;;;;8.23;3.60;;;27.30;82.90;;;;;;5019968;28;20021;-53
2022/08/29 12:22:44;;;;;;;10.02;2.95;;;27.10;89.30;;;;;;5028870;28;20025;-54
2022/08/29 12:25:35;;;;;;;11.93;3.85;;;27.30;87.50;;;;;;5029710;28;20029;-53
2022/08/29 12:28:16;;;;;;;9.60;4.00;;;27.20;89.90;;;;;;5029874;28;20110;-53
2022/08/29 12:31:03;;;;;;;6.05;2.78;;;27.30;87.80;;;;;;5029589;28;20485;-54
2022/08/29 12:33:43;;;;;;;8.77;3.28;;;27.30;85.70;;;;;;5029583;28;20033;-54
2022/08/29 12:36:23;;;;;;;7.97;3.00;;;27.30;87.20;;;;;;5021520;28;20951;-54
2022/08/29 12:39:20;;;;;;;12.00;3.60;;;27.10;86.20;;;;;;5016374;28;20037;-54
2022/08/29 12:42:01;;;;;;;11.98;3.25;;;27.20;85.60;;;;;;5008582;28;20079;-53
2022/08/29 12:44:34;;;;;;;11.25;3.75;;;27.50;86.20;;;;;;5019083;28;20104;-53
2022/08/29 12:47:05;;;;;;;9.95;3.05;;;27.80;87.10;;;;;;4998814;28;20493;-53
2022/08/29 12:49:50;;;;;;;6.72;3.03;;;27.80;89.40;;;;;;5009719;28;20033;-53
2022/08/29 12:52:28;;;;;;;13.98;4.00;;;27.60;87.90;;;;;;5009144;28;20018;-52
2022/08/29 12:55:15;;;;;;;12.10;4.13;;;27.80;90.50;;;;;;5013624;28;20033;-53
2022/08/29 12:57:44;;;;;;;8.25;3.53;;;27.50;89.40;;;;;;5008994;28;20125;-53
2022/08/29 13:00:20;;;;;;;9.35;3.95;;;27.10;84.70;;;;;;5009107;28;20038;-54